createdAt,value
2018-12-31T00:01:44.333Z,98.29
2018-12-31T00:04:12.654Z,98.14
2018-12-31T00:06:40.965Z,98.24
2018-12-31T00:09:09.285Z,98.29
2018-12-31T00:11:37.586Z,98.30
2018-12-31T00:14:05.974Z,98.28
2018-12-31T00:16:34.275Z,98.22
2018-12-31T00:19:02.649Z,98.20
2018-12-31T00:21:30.975Z,98.30
2018-12-31T00:23:59.520Z,98.35
2018-12-31T00:26:28.095Z,98.40
2018-12-31T00:28:56.382Z,98.37
2018-12-31T00:31:24.682Z,98.38
2018-12-31T00:33:53.007Z,98.40
2018-12-31T00:36:21.311Z,98.47
2018-12-31T00:38:49.626Z,98.40
2018-12-31T00:41:17.916Z,98.37
2018-12-31T00:43:46.201Z,98.26
2018-12-31T00:46:14.516Z,98.15
2018-12-31T00:48:42.810Z,98.29
2018-12-31T00:51:11.132Z,98.47
2018-12-31T00:53:39.422Z,98.53
2018-12-31T00:56:07.746Z,98.64
2018-12-31T00:58:36.305Z,98.29
2018-12-31T01:01:04.599Z,98.50
2018-12-31T01:03:32.907Z,98.71
2018-12-31T01:06:01.215Z,98.75
2018-12-31T01:08:29.533Z,98.82
2018-12-31T01:10:57.837Z,98.79
2018-12-31T01:13:26.393Z,98.79
2018-12-31T01:15:54.698Z,98.67
2018-12-31T01:18:23.027Z,98.72
2018-12-31T01:20:51.329Z,98.70
2018-12-31T01:23:19.654Z,98.67
2018-12-31T01:25:47.928Z,98.67
2018-12-31T01:28:16.234Z,98.71
2018-12-31T01:30:44.539Z,98.71
2018-12-31T01:33:12.848Z,98.75
2018-12-31T01:35:41.157Z,98.79
2018-12-31T01:38:09.450Z,98.78
2018-12-31T01:40:37.769Z,98.75
2018-12-31T01:43:06.139Z,98.71
2018-12-31T01:45:34.522Z,98.64
2018-12-31T01:48:02.813Z,98.56
2018-12-31T01:50:31.134Z,98.69
2018-12-31T01:52:59.420Z,98.79
2018-12-31T01:55:27.731Z,98.82
2018-12-31T01:57:56.106Z,98.79
2018-12-31T02:00:24.418Z,98.75
2018-12-31T02:02:52.724Z,98.77
2018-12-31T02:05:21.031Z,98.71
2018-12-31T02:07:49.337Z,98.62
2018-12-31T02:10:17.626Z,98.54
2018-12-31T02:12:45.950Z,98.55
2018-12-31T02:15:14.242Z,98.52
2018-12-31T02:17:42.544Z,98.46
2018-12-31T02:20:10.855Z,98.51
2018-12-31T02:22:40.828Z,98.50
2018-12-31T02:25:09.041Z,98.57
2018-12-31T02:27:37.334Z,98.55
2018-12-31T02:30:05.679Z,98.66
2018-12-31T02:32:33.931Z,98.74
2018-12-31T02:35:02.253Z,98.71
2018-12-31T02:37:30.545Z,98.76
2018-12-31T02:39:59.123Z,98.68
2018-12-31T02:42:27.412Z,98.77
2018-12-31T02:44:55.738Z,98.84
2018-12-31T02:47:24.026Z,98.74
2018-12-31T02:49:52.344Z,98.62
2018-12-31T02:52:20.635Z,98.70
2018-12-31T02:54:48.951Z,98.74
2018-12-31T02:57:17.261Z,98.73
2018-12-31T02:59:45.650Z,98.67
2018-12-31T03:02:13.957Z,98.55
2018-12-31T03:04:42.265Z,98.47
2018-12-31T03:07:10.562Z,98.51
2018-12-31T03:09:38.851Z,98.55
2018-12-31T03:12:07.168Z,98.71
2018-12-31T03:14:35.543Z,98.67
2018-12-31T03:17:03.863Z,98.77
2018-12-31T03:19:32.150Z,98.77
2018-12-31T03:22:00.458Z,98.72
2018-12-31T03:24:28.994Z,98.77
2018-12-31T03:26:57.297Z,98.71
2018-12-31T03:29:25.597Z,98.83
2018-12-31T03:31:54.176Z,98.87
2018-12-31T03:34:22.471Z,98.81
2018-12-31T03:36:50.780Z,98.68
2018-12-31T03:39:19.085Z,98.67
2018-12-31T03:41:47.555Z,98.80
2018-12-31T03:44:15.876Z,98.89
2018-12-31T03:46:44.188Z,98.90
2018-12-31T03:49:12.508Z,98.82
2018-12-31T03:51:40.808Z,98.72
2018-12-31T03:54:09.121Z,98.69
2018-12-31T03:56:37.425Z,98.62
2018-12-31T03:59:05.731Z,98.62
2018-12-31T04:01:34.021Z,98.60
2018-12-31T04:04:02.324Z,98.64
2018-12-31T04:06:30.628Z,98.76
2018-12-31T04:08:58.936Z,98.79
2018-12-31T04:11:27.258Z,98.74
2018-12-31T04:13:55.561Z,98.67
2018-12-31T04:16:23.862Z,98.67
2018-12-31T04:18:52.179Z,98.65
2018-12-31T04:21:20.733Z,98.63
2018-12-31T04:23:49.054Z,98.57
2018-12-31T04:26:17.366Z,98.63
2018-12-31T04:28:45.693Z,98.60
2018-12-31T04:31:14.243Z,98.67
2018-12-31T04:33:42.568Z,98.74
2018-12-31T04:36:10.867Z,98.82
2018-12-31T04:38:39.425Z,98.76
2018-12-31T04:41:07.729Z,98.78
2018-12-31T04:43:36.018Z,98.85
2018-12-31T04:46:04.336Z,98.85
2018-12-31T04:48:32.623Z,98.84
2018-12-31T04:51:00.938Z,98.78
2018-12-31T04:53:29.239Z,98.76
2018-12-31T04:55:57.567Z,98.77
2018-12-31T04:58:25.870Z,98.79
2018-12-31T05:00:54.157Z,98.83
2018-12-31T05:03:22.476Z,98.87
2018-12-31T05:05:50.778Z,98.84
2018-12-31T05:08:19.350Z,98.85
2018-12-31T05:10:47.647Z,98.84
2018-12-31T05:13:15.950Z,98.83
2018-12-31T05:15:44.279Z,98.80
2018-12-31T05:18:12.583Z,98.67
2018-12-31T05:20:40.898Z,98.65
2018-12-31T05:23:09.193Z,98.73
2018-12-31T05:25:37.497Z,98.79
2018-12-31T05:28:05.800Z,98.76
2018-12-31T05:30:34.195Z,98.79
2018-12-31T05:33:02.444Z,98.78
2018-12-31T05:35:30.771Z,98.93
2018-12-31T05:37:59.075Z,98.92
2018-12-31T05:40:27.383Z,99.00
2018-12-31T05:42:55.681Z,99.20
2018-12-31T05:45:23.994Z,99.17
2018-12-31T05:47:52.295Z,99.18
2018-12-31T05:50:20.581Z,99.17
2018-12-31T05:52:48.901Z,99.15
2018-12-31T05:55:17.429Z,99.19
2018-12-31T05:57:45.741Z,99.24
2018-12-31T06:00:14.042Z,99.21
2018-12-31T06:02:45.065Z,99.12
2018-12-31T06:05:13.353Z,99.08
2018-12-31T06:07:41.665Z,98.97
2018-12-31T06:10:09.956Z,98.97
2018-12-31T06:12:38.274Z,98.96
2018-12-31T06:15:06.902Z,98.96
2018-12-31T06:17:35.214Z,99.03
2018-12-31T06:20:03.536Z,99.03
2018-12-31T06:22:32.065Z,98.91
2018-12-31T06:25:00.370Z,98.98
2018-12-31T06:27:28.927Z,98.90
2018-12-31T06:29:57.247Z,99.00
2018-12-31T06:32:25.539Z,99.02
2018-12-31T06:34:53.862Z,98.99
2018-12-31T06:37:22.185Z,98.98
2018-12-31T06:39:50.754Z,98.89
2018-12-31T06:42:19.057Z,98.80
2018-12-31T06:44:47.369Z,98.71
2018-12-31T06:47:15.682Z,98.65
2018-12-31T06:49:43.970Z,98.68
2018-12-31T06:52:12.278Z,98.66
2018-12-31T06:54:40.568Z,98.64
2018-12-31T06:57:08.881Z,98.57
2018-12-31T06:59:37.170Z,98.59
2018-12-31T07:02:05.477Z,98.57
2018-12-31T07:04:33.781Z,98.54
2018-12-31T07:07:02.100Z,98.56
2018-12-31T07:09:30.410Z,98.50
2018-12-31T07:11:58.717Z,98.47
2018-12-31T07:14:27.017Z,98.46
2018-12-31T07:16:55.321Z,98.30
2018-12-31T07:19:23.624Z,98.41
2018-12-31T07:21:51.910Z,98.54
2018-12-31T07:24:20.225Z,98.53
2018-12-31T07:26:48.513Z,98.54
2018-12-31T07:29:16.824Z,98.61
2018-12-31T07:31:45.377Z,98.63
2018-12-31T07:34:13.697Z,98.73
2018-12-31T07:36:41.997Z,98.71
2018-12-31T07:39:10.306Z,98.74
2018-12-31T07:41:38.593Z,98.67
2018-12-31T07:44:07.141Z,98.70
2018-12-31T07:46:35.462Z,98.68
2018-12-31T07:49:03.769Z,98.72
2018-12-31T07:51:32.085Z,98.71
2018-12-31T07:54:00.375Z,98.74
2018-12-31T07:56:28.685Z,98.73
2018-12-31T07:58:56.974Z,98.77
2018-12-31T08:01:25.267Z,98.82
2018-12-31T08:03:53.586Z,98.84
2018-12-31T08:06:21.878Z,98.82
2018-12-31T08:08:50.197Z,98.77
2018-12-31T08:11:18.494Z,98.65
2018-12-31T08:13:46.809Z,98.69
2018-12-31T08:16:15.114Z,98.64
2018-12-31T08:18:43.409Z,98.65
2018-12-31T08:21:11.725Z,98.60
2018-12-31T08:23:40.021Z,98.63
2018-12-31T08:26:08.325Z,98.68
2018-12-31T08:28:36.621Z,98.67
2018-12-31T08:31:04.935Z,98.58
2018-12-31T08:33:33.253Z,98.54
2018-12-31T08:36:01.551Z,98.35
2018-12-31T08:38:29.876Z,98.33
2018-12-31T08:40:58.194Z,98.32
2018-12-31T08:43:26.502Z,98.29
2018-12-31T08:45:54.804Z,98.30
2018-12-31T08:48:23.114Z,98.25
2018-12-31T08:50:51.408Z,98.20
2018-12-31T08:53:19.735Z,98.13
2018-12-31T08:55:48.047Z,98.12
2018-12-31T08:58:16.591Z,98.06
2018-12-31T09:00:44.913Z,97.98
2018-12-31T09:03:13.208Z,97.95
2018-12-31T09:05:41.514Z,98.01
2018-12-31T09:08:09.808Z,98.06
2018-12-31T09:10:38.118Z,97.97
2018-12-31T09:13:06.410Z,97.90
2018-12-31T09:15:34.961Z,97.79
2018-12-31T09:18:03.284Z,97.79
2018-12-31T09:20:31.580Z,97.56
2018-12-31T09:22:59.893Z,97.54
2018-12-31T09:25:28.437Z,97.54
2018-12-31T09:27:56.760Z,97.50
2018-12-31T09:30:25.065Z,97.42
2018-12-31T09:32:53.382Z,97.12
2018-12-31T09:35:21.929Z,96.82
2018-12-31T09:37:50.222Z,96.85
2018-12-31T09:40:18.541Z,97.02
2018-12-31T09:42:46.839Z,96.87
2018-12-31T09:45:15.163Z,97.07
2018-12-31T09:47:43.471Z,96.83
2018-12-31T09:50:11.787Z,96.84
2018-12-31T09:52:40.100Z,96.92
2018-12-31T09:55:08.408Z,96.75
2018-12-31T09:57:36.714Z,96.51
2018-12-31T10:00:06.701Z,96.33
2018-12-31T10:02:35.013Z,96.02
2018-12-31T10:05:03.392Z,95.78
2018-12-31T10:07:31.699Z,95.49
2018-12-31T10:09:59.992Z,95.41
2018-12-31T10:12:28.548Z,95.42
2018-12-31T10:14:56.852Z,95.62
2018-12-31T10:17:25.418Z,95.52
2018-12-31T10:19:53.975Z,95.65
2018-12-31T10:22:22.552Z,95.75
2018-12-31T10:24:50.854Z,95.79
2018-12-31T10:27:19.184Z,95.66
2018-12-31T10:29:47.736Z,95.39
2018-12-31T10:32:16.046Z,95.24
2018-12-31T10:34:44.340Z,95.17
2018-12-31T10:37:12.648Z,95.12
2018-12-31T10:39:41.227Z,94.69
2018-12-31T10:42:09.541Z,94.75
2018-12-31T10:44:38.114Z,94.83
2018-12-31T10:47:06.454Z,94.86
2018-12-31T10:49:34.759Z,94.70
2018-12-31T10:52:03.062Z,94.49
2018-12-31T10:54:31.427Z,94.19
2018-12-31T10:56:59.735Z,94.06
2018-12-31T10:59:28.279Z,94.19
2018-12-31T11:01:56.597Z,94.37
2018-12-31T11:04:24.971Z,94.18
2018-12-31T11:06:53.283Z,93.50
2018-12-31T11:09:21.596Z,93.94
2018-12-31T11:11:49.882Z,93.93
2018-12-31T11:14:18.196Z,94.07
2018-12-31T11:16:46.489Z,94.11
2018-12-31T11:19:15.045Z,93.97
2018-12-31T11:21:43.338Z,93.88
2018-12-31T11:24:12.753Z,93.74
2018-12-31T11:26:41.131Z,93.66
2018-12-31T11:29:09.823Z,93.72
2018-12-31T11:31:38.378Z,93.14
2018-12-31T11:34:06.918Z,93.58
2018-12-31T11:36:35.231Z,93.34
2018-12-31T11:39:04.163Z,93.60
2018-12-31T11:41:32.487Z,93.57
2018-12-31T11:44:01.021Z,93.54
2018-12-31T11:46:29.339Z,93.43
2018-12-31T11:48:57.654Z,93.36
2018-12-31T11:51:25.958Z,93.20
2018-12-31T11:53:54.269Z,93.11
2018-12-31T11:56:22.573Z,92.84
2018-12-31T11:58:50.894Z,92.97
2018-12-31T12:01:19.376Z,92.89
2018-12-31T12:03:47.684Z,92.91
2018-12-31T12:06:15.974Z,92.91
2018-12-31T12:08:44.293Z,93.11
2018-12-31T12:11:13.033Z,93.29
2018-12-31T12:13:41.586Z,93.10
2018-12-31T12:16:09.891Z,93.23
2018-12-31T12:18:38.430Z,93.09
2018-12-31T12:21:06.740Z,93.10
2018-12-31T12:23:35.030Z,93.11
2018-12-31T12:26:03.347Z,93.06
2018-12-31T12:28:31.655Z,92.70
2018-12-31T12:30:59.988Z,92.50
2018-12-31T12:33:28.280Z,92.51
2018-12-31T12:35:56.588Z,92.54
2018-12-31T12:38:24.897Z,92.74
2018-12-31T12:40:53.457Z,92.47
2018-12-31T12:43:21.775Z,92.43
2018-12-31T12:45:50.331Z,92.41
2018-12-31T12:48:18.641Z,92.50
2018-12-31T12:50:46.939Z,92.47
2018-12-31T12:53:15.267Z,92.35
2018-12-31T12:55:43.572Z,92.20
2018-12-31T12:58:12.122Z,92.27
2018-12-31T13:00:40.444Z,92.34
2018-12-31T13:03:09.240Z,92.25
2018-12-31T13:05:37.566Z,92.28
2018-12-31T13:08:06.139Z,92.23
2018-12-31T13:10:34.439Z,92.19
2018-12-31T13:13:02.751Z,92.45
2018-12-31T13:15:31.334Z,92.57
2018-12-31T13:17:59.656Z,92.49
2018-12-31T13:20:27.974Z,92.46
2018-12-31T13:22:56.271Z,92.60
2018-12-31T13:25:24.851Z,92.51
2018-12-31T13:27:53.418Z,92.42
2018-12-31T13:30:21.743Z,92.44
2018-12-31T13:32:50.040Z,92.42
2018-12-31T13:35:18.371Z,92.20
2018-12-31T13:37:46.661Z,91.89
2018-12-31T13:40:14.955Z,91.42
2018-12-31T13:42:43.262Z,91.51
2018-12-31T13:45:11.570Z,91.59
2018-12-31T13:47:39.889Z,91.60
2018-12-31T13:50:08.206Z,91.87
2018-12-31T13:52:36.510Z,91.79
2018-12-31T13:55:05.447Z,91.79
2018-12-31T13:57:33.761Z,91.85
2018-12-31T14:00:02.069Z,91.79
2018-12-31T14:02:30.625Z,91.77
2018-12-31T14:04:58.954Z,91.67
2018-12-31T14:07:27.430Z,91.55
2018-12-31T14:09:55.755Z,91.53
2018-12-31T14:12:24.062Z,91.50
2018-12-31T14:14:52.381Z,91.47
2018-12-31T14:17:20.693Z,91.36
2018-12-31T14:19:49.195Z,91.15
2018-12-31T14:22:17.508Z,91.17
2018-12-31T14:24:45.815Z,91.25
2018-12-31T14:27:14.109Z,91.34
2018-12-31T14:29:42.657Z,91.17
2018-12-31T14:32:11.496Z,91.21
2018-12-31T14:34:39.807Z,91.13
2018-12-31T14:37:08.115Z,91.13
2018-12-31T14:39:36.417Z,91.28
2018-12-31T14:42:04.748Z,91.30
2018-12-31T14:44:33.037Z,91.30
2018-12-31T14:47:01.363Z,91.38
2018-12-31T14:49:29.667Z,91.56
2018-12-31T14:51:58.237Z,91.93
2018-12-31T14:54:26.539Z,91.84
2018-12-31T14:56:55.707Z,91.84
2018-12-31T14:59:24.282Z,91.98
2018-12-31T15:01:52.595Z,91.89
2018-12-31T15:04:20.886Z,92.16
2018-12-31T15:06:49.426Z,92.18
2018-12-31T15:09:17.752Z,92.32
2018-12-31T15:11:46.055Z,92.44
2018-12-31T15:14:14.382Z,92.37
2018-12-31T15:16:42.698Z,92.52
2018-12-31T15:19:11.264Z,92.52
2018-12-31T15:21:39.579Z,92.43
2018-12-31T15:24:08.248Z,92.48
2018-12-31T15:26:36.563Z,92.41
2018-12-31T15:29:04.890Z,92.59
2018-12-31T15:31:33.211Z,92.68
2018-12-31T15:34:01.522Z,92.71
2018-12-31T15:36:30.068Z,92.79
2018-12-31T15:38:58.644Z,92.80
2018-12-31T15:41:27.186Z,92.89
2018-12-31T15:43:55.490Z,92.70
2018-12-31T15:46:23.789Z,92.51
2018-12-31T15:48:52.365Z,92.91
2018-12-31T15:51:20.659Z,92.73
2018-12-31T15:53:48.965Z,93.04
2018-12-31T15:56:17.512Z,92.99
2018-12-31T15:58:45.819Z,93.09
2018-12-31T16:01:14.140Z,93.23
2018-12-31T16:03:42.630Z,93.19
2018-12-31T16:06:11.186Z,93.07
2018-12-31T16:08:39.723Z,93.23
2018-12-31T16:11:08.279Z,93.18
2018-12-31T16:13:36.590Z,93.09
2018-12-31T16:16:05.672Z,93.15
2018-12-31T16:18:33.982Z,93.16
2018-12-31T16:21:02.284Z,93.35
2018-12-31T16:23:30.869Z,93.39
2018-12-31T16:25:59.412Z,93.48
2018-12-31T16:28:27.706Z,93.72
2018-12-31T16:30:56.319Z,93.51
2018-12-31T16:33:24.571Z,93.07
2018-12-31T16:35:53.140Z,93.17
2018-12-31T16:38:21.446Z,93.36
2018-12-31T16:40:49.981Z,93.54
2018-12-31T16:43:18.308Z,93.70
2018-12-31T16:45:46.607Z,93.58
2018-12-31T16:48:14.993Z,93.55
2018-12-31T16:50:43.294Z,93.63
2018-12-31T16:53:11.834Z,93.76
2018-12-31T16:55:40.427Z,93.66
2018-12-31T16:58:08.733Z,93.79
2018-12-31T17:00:37.053Z,93.59
2018-12-31T17:03:05.611Z,93.60
2018-12-31T17:05:33.917Z,93.80
2018-12-31T17:08:02.229Z,93.84
2018-12-31T17:10:30.774Z,93.76
2018-12-31T17:12:59.092Z,93.72
2018-12-31T17:15:27.706Z,93.80
2018-12-31T17:17:56.967Z,93.83
2018-12-31T17:20:25.252Z,93.85
2018-12-31T17:22:53.739Z,93.74
2018-12-31T17:25:22.296Z,93.69
2018-12-31T17:27:50.871Z,93.71
2018-12-31T17:30:19.175Z,93.67
2018-12-31T17:32:47.494Z,93.74
2018-12-31T17:35:16.091Z,93.69
2018-12-31T17:37:44.414Z,93.64
2018-12-31T17:40:12.711Z,92.96
2018-12-31T17:42:41.018Z,93.18
2018-12-31T17:45:09.327Z,93.05
2018-12-31T17:47:37.890Z,93.15
2018-12-31T17:50:07.337Z,93.15
2018-12-31T17:52:35.640Z,93.05
2018-12-31T17:55:04.024Z,92.87
2018-12-31T17:57:32.316Z,92.75
2018-12-31T18:00:00.668Z,92.55
2018-12-31T18:02:28.937Z,92.43
2018-12-31T18:04:57.260Z,92.38
2018-12-31T18:07:25.575Z,92.40
2018-12-31T18:09:53.909Z,92.42
2018-12-31T18:12:22.202Z,92.42
2018-12-31T18:14:50.907Z,92.38
2018-12-31T18:17:19.217Z,92.29
2018-12-31T18:19:47.758Z,92.31
2018-12-31T18:22:16.093Z,92.19
2018-12-31T18:24:44.409Z,92.16
2018-12-31T18:27:12.736Z,92.05
2018-12-31T18:29:41.271Z,91.97
2018-12-31T18:32:09.580Z,91.85
2018-12-31T18:34:37.872Z,91.55
2018-12-31T18:37:06.175Z,91.42
2018-12-31T18:39:34.497Z,91.55
2018-12-31T18:42:02.814Z,91.31
2018-12-31T18:44:31.132Z,91.29
2018-12-31T18:46:59.671Z,90.98
2018-12-31T18:49:27.967Z,90.79
2018-12-31T18:51:56.542Z,90.64
2018-12-31T18:54:25.108Z,90.58
2018-12-31T18:56:53.427Z,90.76
2018-12-31T18:59:21.978Z,90.59
2018-12-31T19:01:50.293Z,90.56
2018-12-31T19:04:18.594Z,90.40
2018-12-31T19:06:47.136Z,90.48
2018-12-31T19:09:15.673Z,90.40
2018-12-31T19:11:44.035Z,90.05
2018-12-31T19:14:12.332Z,90.21
2018-12-31T19:16:40.891Z,90.07
2018-12-31T19:19:09.189Z,89.65
2018-12-31T19:21:37.660Z,89.56
2018-12-31T19:24:05.975Z,89.44
2018-12-31T19:26:34.507Z,89.61
2018-12-31T19:29:02.832Z,89.48
2018-12-31T19:31:31.123Z,89.35
2018-12-31T19:33:59.514Z,89.31
2018-12-31T19:36:27.880Z,89.23
2018-12-31T19:38:56.114Z,89.29
2018-12-31T19:41:24.440Z,89.26
2018-12-31T19:43:52.731Z,89.25
2018-12-31T19:46:21.051Z,88.97
2018-12-31T19:48:49.348Z,89.11
2018-12-31T19:51:17.641Z,89.23
2018-12-31T19:53:45.950Z,88.89
2018-12-31T19:56:14.240Z,88.89
2018-12-31T19:58:42.554Z,88.98
2018-12-31T20:01:11.130Z,88.97
2018-12-31T20:03:39.457Z,88.86
2018-12-31T20:06:07.744Z,88.75
2018-12-31T20:08:36.042Z,88.70
2018-12-31T20:11:04.349Z,88.84
2018-12-31T20:13:32.645Z,88.82
2018-12-31T20:16:00.950Z,88.82
2018-12-31T20:18:29.236Z,88.83
2018-12-31T20:20:57.540Z,88.72
2018-12-31T20:23:25.850Z,88.93
2018-12-31T20:25:54.158Z,89.09
2018-12-31T20:28:22.743Z,89.09
2018-12-31T20:30:51.295Z,89.30
2018-12-31T20:33:19.607Z,89.28
2018-12-31T20:35:47.920Z,89.29
2018-12-31T20:38:16.256Z,89.50
2018-12-31T20:40:44.560Z,89.42
2018-12-31T20:43:14.436Z,89.41
2018-12-31T20:45:42.764Z,89.00
2018-12-31T20:48:11.070Z,89.33
2018-12-31T20:50:39.378Z,89.62
2018-12-31T20:53:07.695Z,89.56
2018-12-31T20:55:36.235Z,89.79
2018-12-31T20:58:04.547Z,89.82
2018-12-31T21:00:32.866Z,89.85
2018-12-31T21:03:01.184Z,89.93
2018-12-31T21:05:29.482Z,89.95
2018-12-31T21:07:57.815Z,89.88
2018-12-31T21:10:26.094Z,89.88
2018-12-31T21:12:54.638Z,89.93
2018-12-31T21:15:23.190Z,89.82
2018-12-31T21:17:51.741Z,89.83
2018-12-31T21:20:20.919Z,90.02
2018-12-31T21:22:49.222Z,90.21
2018-12-31T21:25:17.512Z,90.36
2018-12-31T21:27:45.826Z,90.45
2018-12-31T21:30:14.129Z,90.30
2018-12-31T21:32:42.454Z,90.31
2018-12-31T21:35:10.741Z,90.26
2018-12-31T21:37:39.226Z,90.23
2018-12-31T21:40:08.567Z,90.14
2018-12-31T21:42:36.887Z,90.20
2018-12-31T21:45:05.788Z,90.17
2018-12-31T21:47:34.118Z,90.17
2018-12-31T21:50:02.421Z,90.23
2018-12-31T21:52:30.727Z,90.22
2018-12-31T21:54:59.027Z,90.30
2018-12-31T21:57:27.566Z,90.28
2018-12-31T21:59:56.113Z,90.33
2018-12-31T22:02:24.410Z,90.44
2018-12-31T22:04:53.023Z,90.56
2018-12-31T22:07:21.338Z,90.70
2018-12-31T22:09:49.637Z,90.46
2018-12-31T22:12:17.958Z,90.53
2018-12-31T22:14:46.332Z,90.53
2018-12-31T22:17:14.902Z,90.75
2018-12-31T22:19:43.454Z,90.83
2018-12-31T22:22:12.006Z,90.84
2018-12-31T22:24:40.297Z,91.03
2018-12-31T22:27:08.601Z,90.60
2018-12-31T22:29:36.888Z,90.91
2018-12-31T22:32:05.486Z,91.41
2018-12-31T22:34:34.016Z,91.71
2018-12-31T22:37:02.340Z,92.38
2018-12-31T22:39:30.625Z,92.01
2018-12-31T22:41:58.933Z,92.25
2018-12-31T22:44:27.238Z,92.31
2018-12-31T22:46:55.545Z,92.47
2018-12-31T22:49:23.853Z,92.79
2018-12-31T22:51:52.158Z,92.69
2018-12-31T22:54:20.462Z,93.07
2018-12-31T22:56:48.764Z,93.11
2018-12-31T22:59:17.159Z,92.96
2018-12-31T23:01:45.745Z,93.44
2018-12-31T23:04:14.051Z,93.57
2018-12-31T23:06:42.364Z,93.53
2018-12-31T23:09:11.424Z,93.73
2018-12-31T23:11:40.115Z,93.54
2018-12-31T23:14:08.410Z,93.10
2018-12-31T23:16:36.739Z,93.20
2018-12-31T23:19:05.283Z,93.33
2018-12-31T23:21:33.832Z,92.94
2018-12-31T23:24:02.215Z,92.68
2018-12-31T23:26:30.590Z,93.10
2018-12-31T23:28:59.145Z,92.91
2018-12-31T23:31:27.453Z,92.62
2018-12-31T23:33:55.916Z,92.56
2018-12-31T23:36:24.221Z,92.45
2018-12-31T23:38:53.072Z,92.19
2018-12-31T23:41:21.374Z,92.04
2018-12-31T23:43:49.677Z,90.38
2018-12-31T23:46:17.968Z,91.04
2018-12-31T23:48:46.272Z,90.70
2018-12-31T23:51:14.956Z,90.00
2018-12-31T23:53:43.242Z,90.08
2018-12-31T23:56:11.811Z,89.92
2018-12-31T23:58:40.115Z,89.51
